sensor_id;sensor_type;location;lat;lon;timestamp;pressure;altitude;pressure_sealevel;temperature;humidity
56142;BME280;42018;48.588;10.836;2022-07-18T00:02:43;97598.75;;;18.89;47.68
56142;BME280;42018;48.588;10.836;2022-07-18T00:05:28;97591.94;;;18.78;48.11
56142;BME280;42018;48.588;10.836;2022-07-18T00:08:14;97595.28;;;18.70;48.38
56142;BME280;42018;48.588;10.836;2022-07-18T00:10:59;97587.41;;;18.59;48.33
56142;BME280;42018;48.588;10.836;2022-07-18T00:13:45;97600.22;;;18.49;48.93
56142;BME280;42018;48.588;10.836;2022-07-18T00:16:30;97595.00;;;18.25;49.43
56142;BME280;42018;48.588;10.836;2022-07-18T00:19:16;97596.34;;;18.41;48.89
56142;BME280;42018;48.588;10.836;2022-07-18T00:22:03;97604.53;;;18.63;48.07
56142;BME280;42018;48.588;10.836;2022-07-18T00:24:48;97597.66;;;18.43;49.32
56142;BME280;42018;48.588;10.836;2022-07-18T00:27:34;97604.97;;;18.38;49.19
56142;BME280;42018;48.588;10.836;2022-07-18T00:30:20;97605.03;;;18.19;49.78
56142;BME280;42018;48.588;10.836;2022-07-18T00:33:05;97603.50;;;18.46;48.65
56142;BME280;42018;48.588;10.836;2022-07-18T00:35:51;97601.38;;;18.29;49.52
56142;BME280;42018;48.588;10.836;2022-07-18T00:38:36;97601.97;;;18.26;49.60
56142;BME280;42018;48.588;10.836;2022-07-18T00:41:22;97602.38;;;18.33;48.94
56142;BME280;42018;48.588;10.836;2022-07-18T00:44:19;97598.72;;;18.29;49.12
56142;BME280;42018;48.588;10.836;2022-07-18T00:47:04;97605.03;;;18.19;49.61
56142;BME280;42018;48.588;10.836;2022-07-18T00:49:50;97599.50;;;18.29;49.35
56142;BME280;42018;48.588;10.836;2022-07-18T00:52:35;97601.97;;;18.26;49.10
56142;BME280;42018;48.588;10.836;2022-07-18T00:55:21;97602.97;;;18.30;49.01
56142;BME280;42018;48.588;10.836;2022-07-18T00:58:10;97595.41;;;17.99;49.09
56142;BME280;42018;48.588;10.836;2022-07-18T01:00:56;97597.00;;;17.01;51.21
56142;BME280;42018;48.588;10.836;2022-07-18T01:04:01;97592.88;;;16.84;51.46
56142;BME280;42018;48.588;10.836;2022-07-18T01:06:47;97601.06;;;17.17;50.94
56142;BME280;42018;48.588;10.836;2022-07-18T01:09:33;97596.91;;;17.30;50.39
56142;BME280;42018;48.588;10.836;2022-07-18T01:12:19;97592.69;;;17.42;50.18
56142;BME280;42018;48.588;10.836;2022-07-18T01:15:05;97596.81;;;17.16;50.53
56142;BME280;42018;48.588;10.836;2022-07-18T01:17:51;97589.31;;;16.94;51.72
56142;BME280;42018;48.588;10.836;2022-07-18T01:20:37;97587.91;;;17.20;51.10
56142;BME280;42018;48.588;10.836;2022-07-18T01:23:23;97589.03;;;17.14;50.99
56142;BME280;42018;48.588;10.836;2022-07-18T01:26:08;97590.31;;;17.22;50.13
56142;BME280;42018;48.588;10.836;2022-07-18T01:28:54;97587.91;;;17.20;50.92
56142;BME280;42018;48.588;10.836;2022-07-18T01:31:39;97586.88;;;17.16;50.83
56142;BME280;42018;48.588;10.836;2022-07-18T01:34:25;97595.44;;;17.18;50.66
56142;BME280;42018;48.588;10.836;2022-07-18T01:37:10;97586.13;;;17.11;50.98
56142;BME280;42018;48.588;10.836;2022-07-18T01:39:56;97595.72;;;17.36;50.37
56142;BME280;42018;48.588;10.836;2022-07-18T01:42:41;97599.59;;;17.30;50.57
56142;BME280;42018;48.588;10.836;2022-07-18T01:45:26;97599.06;;;17.28;50.41
56142;BME280;42018;48.588;10.836;2022-07-18T01:48:12;97598.59;;;17.20;50.33
56142;BME280;42018;48.588;10.836;2022-07-18T01:50:57;97598.97;;;17.14;50.65
56142;BME280;42018;48.588;10.836;2022-07-18T01:53:54;97610.88;;;17.03;50.54
56142;BME280;42018;48.588;10.836;2022-07-18T01:56:40;97611.28;;;17.15;50.59
56142;BME280;42018;48.588;10.836;2022-07-18T01:59:26;97612.97;;;17.30;50.31
56142;BME280;42018;48.588;10.836;2022-07-18T02:02:11;97610.00;;;17.31;49.96
56142;BME280;42018;48.588;10.836;2022-07-18T02:04:57;97608.38;;;17.54;49.44
56142;BME280;42018;48.588;10.836;2022-07-18T02:07:45;97614.69;;;17.39;50.76
56142;BME280;42018;48.588;10.836;2022-07-18T02:10:30;97620.38;;;17.38;50.48
56142;BME280;42018;48.588;10.836;2022-07-18T02:13:16;97611.91;;;17.07;51.11
56142;BME280;42018;48.588;10.836;2022-07-18T02:16:05;97612.22;;;17.00;50.50
56142;BME280;42018;48.588;10.836;2022-07-18T02:18:50;97610.75;;;16.89;51.26
56142;BME280;42018;48.588;10.836;2022-07-18T02:21:36;97603.75;;;16.93;50.99
56142;BME280;42018;48.588;10.836;2022-07-18T02:24:21;97607.81;;;16.90;51.07
56142;BME280;42018;48.588;10.836;2022-07-18T02:27:07;97603.81;;;16.88;50.97
56142;BME280;42018;48.588;10.836;2022-07-18T02:29:54;97606.38;;;17.22;49.83
56142;BME280;42018;48.588;10.836;2022-07-18T02:32:39;97606.44;;;17.36;49.96
56142;BME280;42018;48.588;10.836;2022-07-18T02:35:25;97596.28;;;17.14;50.67
56142;BME280;42018;48.588;10.836;2022-07-18T02:38:10;97601.69;;;16.85;51.54
56142;BME280;42018;48.588;10.836;2022-07-18T02:40:56;97597.56;;;16.68;51.50
56142;BME280;42018;48.588;10.836;2022-07-18T02:43:41;97600.63;;;16.57;51.39
56142;BME280;42018;48.588;10.836;2022-07-18T02:46:27;97608.56;;;16.38;51.84
56142;BME280;42018;48.588;10.836;2022-07-18T02:49:12;97609.44;;;16.28;52.26
56142;BME280;42018;48.588;10.836;2022-07-18T02:52:11;97605.53;;;16.15;52.56
56142;BME280;42018;48.588;10.836;2022-07-18T02:54:57;97604.97;;;16.18;52.64
56142;BME280;42018;48.588;10.836;2022-07-18T02:57:42;97610.06;;;16.15;53.20
56142;BME280;42018;48.588;10.836;2022-07-18T03:00:28;97614.44;;;16.06;53.80
56142;BME280;42018;48.588;10.836;2022-07-18T03:03:13;97607.25;;;16.01;53.63
56142;BME280;42018;48.588;10.836;2022-07-18T03:05:59;97601.00;;;16.16;53.30
56142;BME280;42018;48.588;10.836;2022-07-18T03:08:45;97608.31;;;16.34;52.58
56142;BME280;42018;48.588;10.836;2022-07-18T03:11:30;97602.41;;;16.37;53.13
56142;BME280;42018;48.588;10.836;2022-07-18T03:14:15;97604.63;;;16.30;53.37
56142;BME280;42018;48.588;10.836;2022-07-18T03:17:01;97603.13;;;16.19;53.80
56142;BME280;42018;48.588;10.836;2022-07-18T03:19:46;97605.44;;;16.25;53.78
56142;BME280;42018;48.588;10.836;2022-07-18T03:22:32;97609.28;;;16.14;54.15
56142;BME280;42018;48.588;10.836;2022-07-18T03:25:18;97613.47;;;16.25;53.67
56142;BME280;42018;48.588;10.836;2022-07-18T03:28:04;97620.22;;;16.18;54.13
56142;BME280;42018;48.588;10.836;2022-07-18T03:30:49;97615.09;;;16.21;53.82
56142;BME280;42018;48.588;10.836;2022-07-18T03:33:35;97611.09;;;16.24;53.62
56142;BME280;42018;48.588;10.836;2022-07-18T03:36:20;97616.38;;;16.29;53.29
56142;BME280;42018;48.588;10.836;2022-07-18T03:39:07;97619.22;;;16.09;53.60
56142;BME280;42018;48.588;10.836;2022-07-18T03:41:53;97617.19;;;15.95;54.08
56142;BME280;42018;48.588;10.836;2022-07-18T03:44:38;97622.41;;;16.11;53.58
56142;BME280;42018;48.588;10.836;2022-07-18T03:47:23;97628.59;;;16.06;53.96
56142;BME280;42018;48.588;10.836;2022-07-18T03:50:09;97624.59;;;16.03;54.04
56142;BME280;42018;48.588;10.836;2022-07-18T03:52:54;97626.28;;;15.94;54.56
56142;BME280;42018;48.588;10.836;2022-07-18T03:55:40;97627.06;;;15.95;54.09
56142;BME280;42018;48.588;10.836;2022-07-18T03:58:26;97628.41;;;15.97;53.75
56142;BME280;42018;48.588;10.836;2022-07-18T04:01:11;97629.00;;;16.23;52.64
56142;BME280;42018;48.588;10.836;2022-07-18T04:03:57;97640.81;;;16.17;53.49
56142;BME280;42018;48.588;10.836;2022-07-18T04:06:42;97627.88;;;16.30;53.25
56142;BME280;42018;48.588;10.836;2022-07-18T04:09:28;97637.53;;;16.25;53.25
56142;BME280;42018;48.588;10.836;2022-07-18T04:12:13;97632.19;;;16.25;53.57
56142;BME280;42018;48.588;10.836;2022-07-18T04:14:59;97630.28;;;16.31;53.25
56142;BME280;42018;48.588;10.836;2022-07-18T04:17:44;97634.59;;;16.27;53.29
56142;BME280;42018;48.588;10.836;2022-07-18T04:20:30;97627.53;;;16.36;53.26
56142;BME280;42018;48.588;10.836;2022-07-18T04:23:16;97629.19;;;16.32;53.25
56142;BME280;42018;48.588;10.836;2022-07-18T04:26:01;97629.56;;;16.55;52.38
56142;BME280;42018;48.588;10.836;2022-07-18T04:28:48;97641.19;;;16.69;52.06
56142;BME280;42018;48.588;10.836;2022-07-18T04:31:34;97633.66;;;16.71;52.17
56142;BME280;42018;48.588;10.836;2022-07-18T04:34:19;97632.13;;;16.94;51.26
56142;BME280;42018;48.588;10.836;2022-07-18T04:37:05;97634.28;;;16.92;51.08
56142;BME280;42018;48.588;10.836;2022-07-18T04:39:50;97631.03;;;16.95;51.13
56142;BME280;42018;48.588;10.836;2022-07-18T04:42:36;97638.31;;;16.89;49.76
56142;BME280;42018;48.588;10.836;2022-07-18T04:45:22;97630.28;;;17.13;50.37
56142;BME280;42018;48.588;10.836;2022-07-18T04:48:08;97636.56;;;17.28;50.00
56142;BME280;42018;48.588;10.836;2022-07-18T04:50:53;97636.31;;;17.48;49.33
56142;BME280;42018;48.588;10.836;2022-07-18T04:53:39;97630.69;;;17.68;49.10
56142;BME280;42018;48.588;10.836;2022-07-18T04:56:24;97634.63;;;17.95;48.75
56142;BME280;42018;48.588;10.836;2022-07-18T04:59:09;97629.47;;;17.99;48.26
56142;BME280;42018;48.588;10.836;2022-07-18T05:01:55;97626.34;;;18.10;48.40
56142;BME280;42018;48.588;10.836;2022-07-18T05:04:40;97626.47;;;18.19;48.77
56142;BME280;42018;48.588;10.836;2022-07-18T05:07:25;97629.44;;;18.17;48.58
56142;BME280;42018;48.588;10.836;2022-07-18T05:10:12;97634.75;;;18.23;48.27
56142;BME280;42018;48.588;10.836;2022-07-18T05:12:59;97630.13;;;18.42;47.81
56142;BME280;42018;48.588;10.836;2022-07-18T05:15:45;97630.94;;;18.56;47.48
56142;BME280;42018;48.588;10.836;2022-07-18T05:18:30;97629.41;;;18.69;47.34
56142;BME280;42018;48.588;10.836;2022-07-18T05:21:15;97635.78;;;18.73;46.60
56142;BME280;42018;48.588;10.836;2022-07-18T05:24:01;97633.00;;;18.78;46.37
56142;BME280;42018;48.588;10.836;2022-07-18T05:26:47;97631.28;;;18.69;47.09
56142;BME280;42018;48.588;10.836;2022-07-18T05:29:32;97632.53;;;18.90;46.27
56142;BME280;42018;48.588;10.836;2022-07-18T05:32:17;97628.88;;;18.86;46.82
56142;BME280;42018;48.588;10.836;2022-07-18T05:35:03;97630.16;;;19.02;46.35
56142;BME280;42018;48.588;10.836;2022-07-18T05:37:49;97638.53;;;19.14;46.36
56142;BME280;42018;48.588;10.836;2022-07-18T05:40:34;97631.75;;;19.17;45.82
56142;BME280;42018;48.588;10.836;2022-07-18T05:43:19;97631.53;;;19.13;46.30
56142;BME280;42018;48.588;10.836;2022-07-18T05:46:05;97638.28;;;19.38;45.39
56142;BME280;42018;48.588;10.836;2022-07-18T05:48:51;97629.03;;;19.45;45.45
56142;BME280;42018;48.588;10.836;2022-07-18T05:51:36;97622.34;;;19.70;45.30
56142;BME280;42018;48.588;10.836;2022-07-18T05:54:21;97621.63;;;20.14;44.92
56142;BME280;42018;48.588;10.836;2022-07-18T05:57:07;97621.53;;;20.05;45.16
56142;BME280;42018;48.588;10.836;2022-07-18T05:59:52;97614.94;;;20.12;45.21
56142;BME280;42018;48.588;10.836;2022-07-18T06:02:38;97618.88;;;20.28;44.60
56142;BME280;42018;48.588;10.836;2022-07-18T06:05:23;97616.28;;;20.68;43.89
56142;BME280;42018;48.588;10.836;2022-07-18T06:08:08;97617.00;;;20.60;43.78
56142;BME280;42018;48.588;10.836;2022-07-18T06:10:54;97622.72;;;20.58;44.07
56142;BME280;42018;48.588;10.836;2022-07-18T06:13:39;97618.13;;;20.90;44.01
56142;BME280;42018;48.588;10.836;2022-07-18T06:16:26;97622.97;;;21.10;42.71
56142;BME280;42018;48.588;10.836;2022-07-18T06:19:12;97625.41;;;21.29;42.43
56142;BME280;42018;48.588;10.836;2022-07-18T06:21:58;97618.66;;;21.58;42.12
56142;BME280;42018;48.588;10.836;2022-07-18T06:24:43;97610.59;;;21.75;41.94
56142;BME280;42018;48.588;10.836;2022-07-18T06:27:28;97619.16;;;21.86;41.23
56142;BME280;42018;48.588;10.836;2022-07-18T06:30:14;97624.72;;;22.07;40.63
56142;BME280;42018;48.588;10.836;2022-07-18T06:32:59;97627.44;;;22.24;39.98
56142;BME280;42018;48.588;10.836;2022-07-18T06:35:45;97626.63;;;22.41;39.81
56142;BME280;42018;48.588;10.836;2022-07-18T06:38:31;97620.88;;;22.60;38.78
56142;BME280;42018;48.588;10.836;2022-07-18T06:41:18;97622.25;;;22.75;39.09
56142;BME280;42018;48.588;10.836;2022-07-18T06:44:03;97618.47;;;23.14;37.45
56142;BME280;42018;48.588;10.836;2022-07-18T06:46:49;97613.34;;;23.21;38.22
56142;BME280;42018;48.588;10.836;2022-07-18T06:49:34;97613.81;;;23.23;37.88
56142;BME280;42018;48.588;10.836;2022-07-18T06:52:19;97613.06;;;23.14;37.79
56142;BME280;42018;48.588;10.836;2022-07-18T06:55:06;97614.03;;;23.39;37.68
56142;BME280;42018;48.588;10.836;2022-07-18T06:57:52;97623.09;;;23.13;38.19
56142;BME280;42018;48.588;10.836;2022-07-18T07:00:37;97618.75;;;23.21;36.93
56142;BME280;42018;48.588;10.836;2022-07-18T07:03:23;97616.69;;;23.48;36.54
56142;BME280;42018;48.588;10.836;2022-07-18T07:06:08;97620.75;;;23.62;36.68
56142;BME280;42018;48.588;10.836;2022-07-18T07:08:54;97610.69;;;23.93;36.13
56142;BME280;42018;48.588;10.836;2022-07-18T07:11:40;97617.50;;;23.99;37.00
56142;BME280;42018;48.588;10.836;2022-07-18T07:14:25;97618.06;;;23.83;36.45
56142;BME280;42018;48.588;10.836;2022-07-18T07:17:10;97606.78;;;24.35;35.81
56142;BME280;42018;48.588;10.836;2022-07-18T07:19:57;97612.22;;;24.35;35.10
56142;BME280;42018;48.588;10.836;2022-07-18T07:22:44;97610.03;;;24.50;34.72
56142;BME280;42018;48.588;10.836;2022-07-18T07:25:29;97617.06;;;24.63;34.58
56142;BME280;42018;48.588;10.836;2022-07-18T07:28:15;97612.97;;;24.57;34.49
56142;BME280;42018;48.588;10.836;2022-07-18T07:31:00;97609.72;;;24.64;34.04
56142;BME280;42018;48.588;10.836;2022-07-18T07:33:46;97602.41;;;24.76;34.30
56142;BME280;42018;48.588;10.836;2022-07-18T07:36:31;97614.31;;;25.08;33.95
56142;BME280;42018;48.588;10.836;2022-07-18T07:39:17;97603.59;;;25.37;33.44
56142;BME280;42018;48.588;10.836;2022-07-18T07:42:02;97613.94;;;25.47;33.99
56142;BME280;42018;48.588;10.836;2022-07-18T07:44:47;97606.94;;;25.46;34.18
56142;BME280;42018;48.588;10.836;2022-07-18T07:47:34;97606.34;;;25.65;32.66
56142;BME280;42018;48.588;10.836;2022-07-18T07:50:20;97598.03;;;25.98;33.21
56142;BME280;42018;48.588;10.836;2022-07-18T07:53:05;97596.25;;;26.18;31.90
56142;BME280;42018;48.588;10.836;2022-07-18T07:55:51;97595.22;;;26.50;31.79
56142;BME280;42018;48.588;10.836;2022-07-18T07:58:36;97592.13;;;26.36;31.56
56142;BME280;42018;48.588;10.836;2022-07-18T08:01:22;97592.44;;;26.47;32.39
56142;BME280;42018;48.588;10.836;2022-07-18T08:04:07;97589.81;;;26.22;31.91
56142;BME280;42018;48.588;10.836;2022-07-18T08:06:52;97593.00;;;26.40;32.39
56142;BME280;42018;48.588;10.836;2022-07-18T08:09:38;97590.44;;;26.76;31.04
56142;BME280;42018;48.588;10.836;2022-07-18T08:12:23;97585.75;;;26.92;31.11
56142;BME280;42018;48.588;10.836;2022-07-18T08:15:09;97579.94;;;27.41;31.43
56142;BME280;42018;48.588;10.836;2022-07-18T08:17:55;97577.91;;;27.73;29.53
56142;BME280;42018;48.588;10.836;2022-07-18T08:20:41;97572.41;;;27.89;29.60
56142;BME280;42018;48.588;10.836;2022-07-18T08:23:26;97577.19;;;27.21;29.63
56142;BME280;42018;48.588;10.836;2022-07-18T08:26:12;97575.19;;;27.38;29.53
56142;BME280;42018;48.588;10.836;2022-07-18T08:28:57;97572.41;;;27.89;29.86
56142;BME280;42018;48.588;10.836;2022-07-18T08:31:42;97571.63;;;28.08;27.49
56142;BME280;42018;48.588;10.836;2022-07-18T08:34:28;97571.06;;;27.99;28.40
56142;BME280;42018;48.588;10.836;2022-07-18T08:37:13;97568.19;;;28.11;28.25
56142;BME280;42018;48.588;10.836;2022-07-18T08:39:59;97565.94;;;28.16;28.10
56142;BME280;42018;48.588;10.836;2022-07-18T08:42:44;97574.56;;;28.38;27.70
56142;BME280;42018;48.588;10.836;2022-07-18T08:45:30;97585.00;;;28.36;26.75
56142;BME280;42018;48.588;10.836;2022-07-18T08:48:16;97574.22;;;28.01;27.51
56142;BME280;42018;48.588;10.836;2022-07-18T08:51:02;97576.47;;;28.37;26.67
56142;BME280;42018;48.588;10.836;2022-07-18T08:53:47;97584.56;;;28.34;25.85
56142;BME280;42018;48.588;10.836;2022-07-18T08:56:33;97586.03;;;28.08;26.02
56142;BME280;42018;48.588;10.836;2022-07-18T08:59:18;97580.56;;;28.47;25.75
56142;BME280;42018;48.588;10.836;2022-07-18T09:02:06;97577.91;;;28.97;26.00
56142;BME280;42018;48.588;10.836;2022-07-18T09:04:52;97580.03;;;29.07;25.74
56142;BME280;42018;48.588;10.836;2022-07-18T09:07:37;97582.75;;;28.84;25.81
56142;BME280;42018;48.588;10.836;2022-07-18T09:10:22;97577.97;;;29.27;24.70
56142;BME280;42018;48.588;10.836;2022-07-18T09:13:08;97571.16;;;29.40;23.67
56142;BME280;42018;48.588;10.836;2022-07-18T09:16:00;97568.63;;;29.28;23.62
56142;BME280;42018;48.588;10.836;2022-07-18T09:18:48;97570.22;;;29.29;25.74
56142;BME280;42018;48.588;10.836;2022-07-18T09:21:35;97568.06;;;29.15;24.36
56142;BME280;42018;48.588;10.836;2022-07-18T09:24:21;97579.41;;;29.44;23.77
56142;BME280;42018;48.588;10.836;2022-07-18T09:27:22;97580.47;;;29.92;24.68
56142;BME280;42018;48.588;10.836;2022-07-18T09:35:50;97575.63;;;30.49;22.10
56142;BME280;42018;48.588;10.836;2022-07-18T09:38:36;97572.69;;;30.69;22.57
56142;BME280;42018;48.588;10.836;2022-07-18T09:41:27;97569.44;;;31.00;22.15
56142;BME280;42018;48.588;10.836;2022-07-18T09:44:16;97567.06;;;30.51;23.54
56142;BME280;42018;48.588;10.836;2022-07-18T09:47:03;97566.66;;;30.93;22.79
56142;BME280;42018;48.588;10.836;2022-07-18T09:49:49;97568.22;;;30.94;21.66
56142;BME280;42018;48.588;10.836;2022-07-18T09:52:34;97568.53;;;30.82;21.96
56142;BME280;42018;48.588;10.836;2022-07-18T09:55:20;97563.31;;;31.18;20.07
56142;BME280;42018;48.588;10.836;2022-07-18T09:58:06;97553.41;;;30.95;20.12
56142;BME280;42018;48.588;10.836;2022-07-18T10:00:54;97562.66;;;30.84;20.51
56142;BME280;42018;48.588;10.836;2022-07-18T10:03:40;97573.63;;;30.87;21.52
56142;BME280;42018;48.588;10.836;2022-07-18T10:06:25;97565.16;;;30.59;21.92
56142;BME280;42018;48.588;10.836;2022-07-18T10:09:11;97559.72;;;30.62;20.56
56142;BME280;42018;48.588;10.836;2022-07-18T10:11:57;97562.31;;;30.48;20.31
56142;BME280;42018;48.588;10.836;2022-07-18T10:14:43;97556.94;;;30.99;20.44
56142;BME280;42018;48.588;10.836;2022-07-18T10:17:29;97554.22;;;30.99;21.05
56142;BME280;42018;48.588;10.836;2022-07-18T10:20:15;97553.88;;;31.08;21.17
56142;BME280;42018;48.588;10.836;2022-07-18T10:23:10;97549.31;;;31.30;20.80
56142;BME280;42018;48.588;10.836;2022-07-18T10:32:02;97539.84;;;31.13;21.54
56142;BME280;42018;48.588;10.836;2022-07-18T10:34:48;97537.75;;;31.58;22.04
56142;BME280;42018;48.588;10.836;2022-07-18T10:37:34;97540.56;;;31.80;22.21
56142;BME280;42018;48.588;10.836;2022-07-18T10:46:16;97531.72;;;31.28;20.24
56142;BME280;42018;48.588;10.836;2022-07-18T10:49:02;97525.22;;;31.54;19.54
56142;BME280;42018;48.588;10.836;2022-07-18T10:51:47;97527.66;;;31.84;19.90
56142;BME280;42018;48.588;10.836;2022-07-18T10:54:33;97526.50;;;31.81;20.64
56142;BME280;42018;48.588;10.836;2022-07-18T10:57:18;97521.50;;;32.12;20.42
56142;BME280;42018;48.588;10.836;2022-07-18T11:00:10;97529.69;;;31.98;20.03
56142;BME280;42018;48.588;10.836;2022-07-18T11:03:07;97520.63;;;31.83;20.55
56142;BME280;42018;48.588;10.836;2022-07-18T11:05:55;97521.81;;;31.85;20.36
56142;BME280;42018;48.588;10.836;2022-07-18T11:08:41;97507.75;;;31.90;20.79
56142;BME280;42018;48.588;10.836;2022-07-18T11:11:26;97513.53;;;31.71;20.75
56142;BME280;42018;48.588;10.836;2022-07-18T11:15:17;97517.88;;;31.79;20.37
56142;BME280;42018;48.588;10.836;2022-07-18T11:18:05;97518.03;;;32.36;21.33
56142;BME280;42018;48.588;10.836;2022-07-18T11:20:51;97513.78;;;32.57;20.05
56142;BME280;42018;48.588;10.836;2022-07-18T11:23:42;97507.06;;;32.90;20.26
56142;BME280;42018;48.588;10.836;2022-07-18T11:26:29;97503.56;;;32.47;18.87
56142;BME280;42018;48.588;10.836;2022-07-18T11:29:17;97506.31;;;32.47;18.84
56142;BME280;42018;48.588;10.836;2022-07-18T11:32:03;97503.16;;;33.12;19.33
56142;BME280;42018;48.588;10.836;2022-07-18T11:34:49;97499.25;;;32.88;19.05
56142;BME280;42018;48.588;10.836;2022-07-18T11:37:36;97502.78;;;32.50;19.53
56142;BME280;42018;48.588;10.836;2022-07-18T11:40:22;97496.53;;;32.74;18.82
56142;BME280;42018;48.588;10.836;2022-07-18T11:43:07;97493.38;;;32.72;18.79
56142;BME280;42018;48.588;10.836;2022-07-18T11:49:05;97492.53;;;33.18;19.45
56142;BME280;42018;48.588;10.836;2022-07-18T11:51:51;97484.66;;;33.34;18.56
56142;BME280;42018;48.588;10.836;2022-07-18T11:54:36;97488.53;;;33.55;19.64
56142;BME280;42018;48.588;10.836;2022-07-18T11:57:28;97482.25;;;33.54;17.47
56142;BME280;42018;48.588;10.836;2022-07-18T12:00:19;97478.63;;;33.72;18.38
56142;BME280;42018;48.588;10.836;2022-07-18T12:03:07;97479.91;;;33.49;19.33
56142;BME280;42018;48.588;10.836;2022-07-18T12:05:53;97483.16;;;33.01;18.21
56142;BME280;42018;48.588;10.836;2022-07-18T12:11:33;97477.78;;;33.85;18.80
56142;BME280;42018;48.588;10.836;2022-07-18T12:14:19;97477.00;;;33.85;18.16
56142;BME280;42018;48.588;10.836;2022-07-18T12:17:05;97475.66;;;33.27;18.20
56142;BME280;42018;48.588;10.836;2022-07-18T12:19:51;97475.41;;;33.88;19.80
56142;BME280;42018;48.588;10.836;2022-07-18T12:22:37;97477.81;;;34.45;18.58
56142;BME280;42018;48.588;10.836;2022-07-18T12:25:43;97471.09;;;34.46;18.14
56142;BME280;42018;48.588;10.836;2022-07-18T12:28:29;97464.50;;;33.73;17.37
56142;BME280;42018;48.588;10.836;2022-07-18T12:31:38;97465.59;;;33.87;17.93
56142;BME280;42018;48.588;10.836;2022-07-18T12:34:24;97462.56;;;34.29;17.65
56142;BME280;42018;48.588;10.836;2022-07-18T12:37:09;97463.94;;;34.03;17.58
56142;BME280;42018;48.588;10.836;2022-07-18T12:39:58;97462.97;;;33.61;17.97
56142;BME280;42018;48.588;10.836;2022-07-18T12:42:44;97454.34;;;33.63;18.18
56142;BME280;42018;48.588;10.836;2022-07-18T12:45:29;97450.75;;;34.32;17.56
56142;BME280;42018;48.588;10.836;2022-07-18T12:48:15;97451.38;;;34.06;17.66
56142;BME280;42018;48.588;10.836;2022-07-18T12:51:03;97446.03;;;33.77;17.45
56142;BME280;42018;48.588;10.836;2022-07-18T12:53:48;97456.94;;;33.92;18.92
56142;BME280;42018;48.588;10.836;2022-07-18T12:56:34;97441.72;;;33.76;18.25
56142;BME280;42018;48.588;10.836;2022-07-18T12:59:19;97448.63;;;34.06;18.28
56142;BME280;42018;48.588;10.836;2022-07-18T13:02:05;97448.34;;;34.42;17.27
56142;BME280;42018;48.588;10.836;2022-07-18T13:04:50;97429.97;;;34.76;17.91
56142;BME280;42018;48.588;10.836;2022-07-18T13:07:36;97441.91;;;34.63;17.89
56142;BME280;42018;48.588;10.836;2022-07-18T13:10:21;97442.81;;;32.95;18.11
56142;BME280;42018;48.588;10.836;2022-07-18T13:13:08;97442.31;;;33.25;18.61
56142;BME280;42018;48.588;10.836;2022-07-18T13:15:54;97443.19;;;33.92;18.35
56142;BME280;42018;48.588;10.836;2022-07-18T13:18:39;97441.75;;;34.28;16.74
56142;BME280;42018;48.588;10.836;2022-07-18T13:21:25;97441.56;;;34.53;17.14
56142;BME280;42018;48.588;10.836;2022-07-18T13:24:10;97425.22;;;34.81;17.01
56142;BME280;42018;48.588;10.836;2022-07-18T13:26:56;97438.22;;;34.76;17.42
56142;BME280;42018;48.588;10.836;2022-07-18T13:29:41;97437.94;;;34.15;17.20
56142;BME280;42018;48.588;10.836;2022-07-18T13:32:30;97429.00;;;34.94;16.74
56142;BME280;42018;48.588;10.836;2022-07-18T13:35:15;97432.03;;;34.69;18.25
56142;BME280;42018;48.588;10.836;2022-07-18T13:38:01;97426.75;;;34.82;18.21
56142;BME280;42018;48.588;10.836;2022-07-18T13:40:46;97420.41;;;34.43;17.24
56142;BME280;42018;48.588;10.836;2022-07-18T13:43:32;97421.16;;;34.51;17.16
56142;BME280;42018;48.588;10.836;2022-07-18T13:46:17;97425.88;;;34.50;17.49
56142;BME280;42018;48.588;10.836;2022-07-18T13:49:03;97421.22;;;34.40;17.91
56142;BME280;42018;48.588;10.836;2022-07-18T13:51:48;97421.88;;;34.59;17.03
56142;BME280;42018;48.588;10.836;2022-07-18T13:54:34;97420.94;;;34.27;17.18
56142;BME280;42018;48.588;10.836;2022-07-18T13:57:20;97414.47;;;34.52;17.68
56142;BME280;42018;48.588;10.836;2022-07-18T14:00:08;97418.25;;;35.07;17.55
56142;BME280;42018;48.588;10.836;2022-07-18T14:02:54;97414.72;;;35.06;18.30
56142;BME280;42018;48.588;10.836;2022-07-18T14:05:39;97414.84;;;34.92;18.16
56142;BME280;42018;48.588;10.836;2022-07-18T14:08:25;97396.19;;;35.41;18.12
56142;BME280;42018;48.588;10.836;2022-07-18T14:11:10;97404.13;;;35.05;17.54
56142;BME280;42018;48.588;10.836;2022-07-18T14:13:56;97400.34;;;34.88;17.94
56142;BME280;42018;48.588;10.836;2022-07-18T14:16:41;97403.69;;;35.40;17.79
56142;BME280;42018;48.588;10.836;2022-07-18T14:19:27;97399.03;;;35.64;17.49
56142;BME280;42018;48.588;10.836;2022-07-18T14:22:12;97403.81;;;34.95;16.35
56142;BME280;42018;48.588;10.836;2022-07-18T14:24:58;97393.41;;;34.76;17.53
56142;BME280;42018;48.588;10.836;2022-07-18T14:27:44;97402.09;;;34.71;16.07
56142;BME280;42018;48.588;10.836;2022-07-18T14:30:29;97399.88;;;34.59;17.65
56142;BME280;42018;48.588;10.836;2022-07-18T14:33:15;97397.66;;;34.39;17.38
56142;BME280;42018;48.588;10.836;2022-07-18T14:36:01;97392.84;;;34.50;18.11
56142;BME280;42018;48.588;10.836;2022-07-18T14:38:46;97391.22;;;34.94;18.64
56142;BME280;42018;48.588;10.836;2022-07-18T14:41:31;97386.19;;;34.86;18.08
56142;BME280;42018;48.588;10.836;2022-07-18T14:44:17;97389.41;;;34.81;18.00
56142;BME280;42018;48.588;10.836;2022-07-18T14:47:03;97387.31;;;34.92;17.22
56142;BME280;42018;48.588;10.836;2022-07-18T14:49:48;97386.97;;;34.48;16.98
56142;BME280;42018;48.588;10.836;2022-07-18T14:52:34;97390.09;;;34.50;16.90
56142;BME280;42018;48.588;10.836;2022-07-18T14:55:19;97377.63;;;34.39;17.37